createdAt,value
2023-02-07T00:01:47.665Z,101220.93
2023-02-07T00:04:53.610Z,101222.10
2023-02-07T00:08:00.114Z,101211.98
2023-02-07T00:11:06.072Z,101215.50
2023-02-07T00:14:12.328Z,101204.20
2023-02-07T00:17:17.576Z,101203.14
2023-02-07T00:20:24.264Z,101201.47
2023-02-07T00:23:29.691Z,101204.47
2023-02-07T00:26:37.166Z,101202.89
2023-02-07T00:29:43.147Z,101204.45
2023-02-07T00:32:48.850Z,101204.89
2023-02-07T00:35:55.834Z,101192.31
2023-02-07T00:39:02.361Z,101191.97
2023-02-07T00:42:07.695Z,101196.34
2023-02-07T00:45:13.190Z,101198.67
2023-02-07T00:48:19.631Z,101197.73
2023-02-07T00:51:26.417Z,101208.17
2023-02-07T00:54:31.888Z,101203.56
2023-02-07T00:57:37.391Z,101187.42
2023-02-07T01:00:44.354Z,101204.88
2023-02-07T01:03:50.743Z,101197.05
2023-02-07T01:06:58.231Z,101204.09
2023-02-07T01:10:05.821Z,101185.97
2023-02-07T01:13:11.438Z,101194.71
2023-02-07T01:16:17.036Z,101201.98
2023-02-07T01:19:23.950Z,101200.44
2023-02-07T01:22:29.721Z,101189.35
2023-02-07T01:25:35.871Z,101195.60
2023-02-07T01:28:41.245Z,101195.93
2023-02-07T01:31:47.950Z,101191.02
2023-02-07T01:34:53.811Z,101195.44
2023-02-07T01:37:59.879Z,101201.86
2023-02-07T01:40:59.505Z,101209.67
2023-02-07T01:44:09.418Z,101191.97
2023-02-07T01:47:14.671Z,101203.34
2023-02-07T01:50:14.293Z,101211.61
2023-02-07T01:53:07.871Z,101217.22
2023-02-07T01:56:30.464Z,101202.70
2023-02-07T01:59:22.976Z,101210.95
2023-02-07T02:02:31.119Z,101206.77
2023-02-07T02:05:37.606Z,101201.36
2023-02-07T02:08:43.545Z,101201.57
2023-02-07T02:12:22.320Z,101199.92
2023-02-07T02:15:57.270Z,101195.58
2023-02-07T02:19:10.427Z,101213.26
2023-02-07T02:22:36.934Z,101197.89
2023-02-07T02:25:52.149Z,101205.98
2023-02-07T02:29:24.243Z,101210.87
2023-02-07T02:33:06.091Z,101217.66
2023-02-07T02:36:34.960Z,101208.75
2023-02-07T02:39:52.680Z,101204.03
2023-02-07T02:43:02.934Z,101197.53
2023-02-07T02:46:10.207Z,101202.30
2023-02-07T02:49:15.823Z,101197.89
2023-02-07T02:52:21.191Z,101199.92
2023-02-07T02:55:26.308Z,101201.19
2023-02-07T02:58:55.870Z,101216.27
2023-02-07T03:02:07.556Z,101212.13
2023-02-07T03:05:52.567Z,101212.13
2023-02-07T03:09:34.242Z,101214.45
2023-02-07T03:13:05.342Z,101218.22
2023-02-07T03:16:43.700Z,101206.41
2023-02-07T03:19:53.819Z,101212.86
2023-02-07T03:22:59.834Z,101211.65
2023-02-07T03:26:04.980Z,101213.41
2023-02-07T03:29:11.262Z,101218.30
2023-02-07T03:32:19.293Z,101229.11
2023-02-07T03:35:35.027Z,101217.48
2023-02-07T03:38:39.694Z,101215.80
2023-02-07T03:41:58.404Z,101229.91
2023-02-07T03:45:05.471Z,101230.09
2023-02-07T03:48:10.527Z,101229.01
2023-02-07T03:51:15.944Z,101239.22
2023-02-07T03:54:22.442Z,101229.31
2023-02-07T03:57:28.664Z,101229.84
2023-02-07T04:00:34.351Z,101249.52
2023-02-07T04:03:39.675Z,101236.45
2023-02-07T04:06:45.187Z,101245.93
2023-02-07T04:09:50.991Z,101245.80
2023-02-07T04:12:57.993Z,101246.50
2023-02-07T04:16:03.627Z,101256.79
2023-02-07T04:19:09.946Z,101255.03
2023-02-07T04:22:17.405Z,101246.05
2023-02-07T04:25:22.498Z,101272.31
2023-02-07T04:28:28.183Z,101262.70
2023-02-07T04:31:34.306Z,101272.59
2023-02-07T04:34:40.230Z,101269.41
2023-02-07T04:37:47.244Z,101270.50
2023-02-07T04:40:54.102Z,101266.59
2023-02-07T04:43:58.916Z,101259.12
2023-02-07T04:47:04.545Z,101261.48
2023-02-07T04:50:10.511Z,101265.62
2023-02-07T04:53:16.889Z,101264.33
2023-02-07T04:56:23.784Z,101268.58
2023-02-07T04:59:30.036Z,101264.57
2023-02-07T05:02:36.930Z,101276.12
2023-02-07T05:05:42.560Z,101272.28
2023-02-07T05:08:42.976Z,101270.83
2023-02-07T05:11:49.213Z,101267.16
2023-02-07T05:14:54.635Z,101261.55
2023-02-07T05:18:00.682Z,101275.50
2023-02-07T05:21:06.597Z,101260.91
2023-02-07T05:24:12.437Z,101263.84
2023-02-07T05:27:17.258Z,101278.55
2023-02-07T05:30:23.900Z,101281.36
2023-02-07T05:33:28.904Z,101280.19
2023-02-07T05:36:34.618Z,101288.13
2023-02-07T05:39:33.073Z,101277.28
2023-02-07T05:42:38.244Z,101282.78
2023-02-07T05:45:44.624Z,101292.39
2023-02-07T05:48:50.139Z,101304.58
2023-02-07T05:51:56.388Z,101301.54
2023-02-07T05:55:03.229Z,101306.81
2023-02-07T05:58:08.620Z,101306.04
2023-02-07T06:01:17.389Z,101309.26
2023-02-07T06:04:22.883Z,101315.61
2023-02-07T06:07:28.122Z,101312.52
2023-02-07T06:10:34.770Z,101310.66
2023-02-07T06:13:39.927Z,101315.34
2023-02-07T06:16:45.443Z,101336.00
2023-02-07T06:19:53.379Z,101316.51
2023-02-07T06:22:59.557Z,101330.26
2023-02-07T06:26:05.323Z,101330.95
2023-02-07T06:29:10.929Z,101333.13
2023-02-07T06:32:17.331Z,101343.40
2023-02-07T06:35:23.025Z,101346.59
2023-02-07T06:38:30.540Z,101341.41
2023-02-07T06:41:36.938Z,101347.19
2023-02-07T06:44:42.473Z,101343.08
2023-02-07T06:47:42.177Z,101368.42
2023-02-07T06:50:48.184Z,101344.01
2023-02-07T06:53:53.087Z,101341.89
2023-02-07T06:56:59.930Z,101352.34
2023-02-07T07:00:05.626Z,101343.13
2023-02-07T07:03:12.266Z,101352.08
2023-02-07T07:06:18.845Z,101359.95
2023-02-07T07:09:25.033Z,101340.71
2023-02-07T07:12:31.036Z,101343.62
2023-02-07T07:15:38.008Z,101350.05
2023-02-07T07:18:45.279Z,101346.86
2023-02-07T07:21:51.106Z,101338.37
2023-02-07T07:24:57.284Z,101339.48
2023-02-07T07:28:03.129Z,101346.89
2023-02-07T07:31:08.956Z,101333.32
2023-02-07T07:34:15.224Z,101332.34
2023-02-07T07:37:20.919Z,101337.73
2023-02-07T07:40:27.075Z,101332.05
2023-02-07T07:43:33.380Z,101329.95
2023-02-07T07:46:38.982Z,101342.33
2023-02-07T07:49:44.216Z,101347.10
2023-02-07T07:52:50.503Z,101333.93
2023-02-07T07:55:55.222Z,101339.48
2023-02-07T07:59:05.934Z,101346.28
2023-02-07T08:02:10.616Z,101336.33
2023-02-07T08:05:17.225Z,101343.48
2023-02-07T08:08:26.440Z,101339.98
2023-02-07T08:11:32.615Z,101332.44
2023-02-07T08:14:42.460Z,101346.04
2023-02-07T08:17:47.894Z,101354.00
2023-02-07T08:20:55.080Z,101341.53
2023-02-07T08:24:01.751Z,101347.34
2023-02-07T08:27:08.036Z,101338.86
2023-02-07T08:30:14.602Z,101339.08
2023-02-07T08:33:23.940Z,101334.09
2023-02-07T08:36:29.448Z,101342.18
2023-02-07T08:39:35.696Z,101338.11
2023-02-07T08:42:42.686Z,101343.48
2023-02-07T08:45:48.557Z,101330.37
2023-02-07T08:48:55.255Z,101339.39
2023-02-07T08:51:54.349Z,101332.77
2023-02-07T08:55:00.200Z,101343.44
2023-02-07T08:58:06.871Z,101334.27
2023-02-07T09:01:15.586Z,101341.90
2023-02-07T09:04:21.370Z,101323.80
2023-02-07T09:07:29.865Z,101329.85
2023-02-07T09:10:38.649Z,101314.70
2023-02-07T09:13:53.618Z,101327.72
2023-02-07T09:17:01.014Z,101327.83
2023-02-07T09:20:16.168Z,101326.19
2023-02-07T09:27:07.391Z,101341.66
2023-02-07T09:30:15.590Z,101327.15
2023-02-07T09:33:21.217Z,101345.87
2023-02-07T09:36:41.194Z,101345.41
2023-02-07T09:39:48.036Z,101324.77
2023-02-07T09:43:10.584Z,101329.50
2023-02-07T09:46:23.550Z,101332.61
2023-02-07T09:49:49.174Z,101336.70
2023-02-07T09:53:07.382Z,101324.07
2023-02-07T09:56:14.572Z,101335.05
2023-02-07T09:59:58.834Z,101328.87
2023-02-07T10:03:27.324Z,101337.43
2023-02-07T10:06:40.430Z,101311.17
2023-02-07T10:09:47.784Z,101308.95
2023-02-07T10:13:13.882Z,101301.41
2023-02-07T10:16:54.110Z,101288.88
2023-02-07T10:20:27.796Z,101300.48
2023-02-07T10:24:00.226Z,101307.69
2023-02-07T10:27:10.761Z,101309.20
2023-02-07T10:30:45.893Z,101306.42
2023-02-07T10:33:54.136Z,101297.57
2023-02-07T10:37:03.856Z,101308.80
2023-02-07T10:40:41.532Z,101313.67
2023-02-07T10:43:49.266Z,101317.65
2023-02-07T10:46:57.214Z,101333.15
2023-02-07T10:49:57.020Z,101325.13
2023-02-07T10:53:01.736Z,101316.91
2023-02-07T10:56:01.074Z,101330.60
2023-02-07T10:59:07.220Z,101326.28
2023-02-07T11:02:11.696Z,101318.59
2023-02-07T11:05:31.665Z,101326.47
2023-02-07T11:08:42.549Z,101320.61
2023-02-07T11:11:50.245Z,101316.45
2023-02-07T11:14:56.204Z,101318.72
2023-02-07T11:18:08.271Z,101320.02
2023-02-07T11:21:13.610Z,101330.77
2023-02-07T11:24:30.072Z,101310.63
2023-02-07T11:27:36.033Z,101306.50
2023-02-07T11:30:42.623Z,101321.80
2023-02-07T11:33:49.635Z,101310.90
2023-02-07T11:36:56.839Z,101305.34
2023-02-07T11:40:04.376Z,101303.25
2023-02-07T11:43:17.115Z,101311.11
2023-02-07T11:46:24.786Z,101326.19
2023-02-07T11:49:51.211Z,101309.84
2023-02-07T11:52:59.978Z,101320.95
2023-02-07T11:56:06.248Z,101323.17
2023-02-07T11:59:12.315Z,101321.83
2023-02-07T12:02:39.007Z,101326.48
2023-02-07T12:05:53.606Z,101315.53
2023-02-07T12:09:00.891Z,101331.85
2023-02-07T12:11:59.622Z,101332.73
2023-02-07T12:15:11.516Z,101316.50
2023-02-07T12:18:50.513Z,101317.59
2023-02-07T12:22:16.200Z,101324.03
2023-02-07T12:25:25.600Z,101337.65
2023-02-07T12:29:04.024Z,101357.45
2023-02-07T12:32:28.451Z,101326.44
2023-02-07T12:35:58.162Z,101324.70
2023-02-07T12:39:18.538Z,101327.79
2023-02-07T12:42:47.180Z,101343.95
2023-02-07T12:46:15.699Z,101346.11
2023-02-07T12:49:28.898Z,101366.45
2023-02-07T12:52:55.486Z,101353.09
2023-02-07T12:56:08.838Z,101362.56
2023-02-07T12:59:30.489Z,101357.98
2023-02-07T13:03:06.006Z,101369.36
2023-02-07T13:06:46.934Z,101371.23
2023-02-07T13:09:59.424Z,101362.92
2023-02-07T13:13:03.341Z,101355.27
2023-02-07T13:16:22.350Z,101367.20
2023-02-07T13:19:51.003Z,101361.58
2023-02-07T13:23:14.346Z,101362.28
2023-02-07T13:26:26.778Z,101371.87
2023-02-07T13:29:33.338Z,101367.86
2023-02-07T13:32:41.729Z,101365.69
2023-02-07T13:35:48.566Z,101371.36
2023-02-07T13:39:30.207Z,101374.56
2023-02-07T13:43:19.097Z,101383.69
2023-02-07T13:46:52.634Z,101365.61
2023-02-07T13:50:20.759Z,101385.59
2023-02-07T13:53:37.506Z,101378.49
2023-02-07T13:57:06.705Z,101371.97
2023-02-07T14:00:31.478Z,101376.33
2023-02-07T14:03:24.855Z,101394.55
2023-02-07T14:06:36.518Z,101391.87
2023-02-07T14:09:51.074Z,101391.27
2023-02-07T14:12:56.785Z,101387.93
2023-02-07T14:16:13.441Z,101423.30
2023-02-07T14:19:20.044Z,101436.92
2023-02-07T14:22:56.957Z,101419.52
2023-02-07T14:26:02.129Z,101448.60
2023-02-07T14:29:07.772Z,101445.10
2023-02-07T14:32:16.884Z,101452.88
2023-02-07T14:35:30.299Z,101465.94
2023-02-07T14:38:57.466Z,101460.97
2023-02-07T14:42:04.387Z,101459.36
2023-02-07T14:45:11.164Z,101459.50
2023-02-07T14:48:16.816Z,101479.20
2023-02-07T14:51:32.704Z,101482.95
2023-02-07T14:54:59.676Z,101483.77
2023-02-07T14:58:22.643Z,101484.05
2023-02-07T15:01:30.987Z,101496.39
2023-02-07T15:04:37.307Z,101493.12
2023-02-07T15:07:42.945Z,101492.83
2023-02-07T15:10:55.656Z,101506.64
2023-02-07T15:14:02.412Z,101516.06
2023-02-07T15:17:08.003Z,101514.60
2023-02-07T15:20:15.918Z,101530.22
2023-02-07T15:23:21.234Z,101531.05
2023-02-07T15:26:26.013Z,101537.28
2023-02-07T15:29:44.826Z,101535.94
2023-02-07T15:32:58.367Z,101536.41
2023-02-07T15:36:04.208Z,101549.92
2023-02-07T15:39:10.586Z,101547.85
2023-02-07T15:42:16.587Z,101562.35
2023-02-07T15:45:24.652Z,101580.47
2023-02-07T15:48:32.344Z,101558.38
2023-02-07T15:51:44.304Z,101571.55
2023-02-07T15:54:46.586Z,101560.84
2023-02-07T15:57:44.587Z,101592.84
2023-02-07T16:00:45.965Z,101588.25
2023-02-07T16:03:51.021Z,101586.37
2023-02-07T16:07:09.845Z,101591.00
2023-02-07T16:10:41.806Z,101608.30
2023-02-07T16:13:47.037Z,101617.45
2023-02-07T16:17:04.623Z,101619.44
2023-02-07T16:20:10.226Z,101618.90
2023-02-07T16:23:18.385Z,101622.17
2023-02-07T16:26:23.721Z,101616.98
2023-02-07T16:29:37.776Z,101621.98
2023-02-07T16:32:46.128Z,101639.55
2023-02-07T16:35:52.728Z,101646.17
2023-02-07T16:38:58.562Z,101645.00
2023-02-07T16:42:11.633Z,101649.28
2023-02-07T16:45:16.522Z,101650.08
2023-02-07T16:48:24.908Z,101655.47
2023-02-07T16:51:31.395Z,101660.49
2023-02-07T16:54:36.975Z,101666.88
2023-02-07T16:57:43.428Z,101667.63
2023-02-07T17:00:50.304Z,101671.61
2023-02-07T17:03:50.606Z,101665.23
2023-02-07T17:06:57.138Z,101679.42
2023-02-07T17:10:02.438Z,101701.22
2023-02-07T17:13:08.762Z,101685.30
2023-02-07T17:16:13.964Z,101686.55
2023-02-07T17:19:32.691Z,101694.91
2023-02-07T17:22:37.752Z,101703.19
2023-02-07T17:25:45.558Z,101716.55
2023-02-07T17:28:51.995Z,101699.88
2023-02-07T17:31:58.118Z,101710.86
2023-02-07T17:35:04.463Z,101722.65
2023-02-07T17:38:11.029Z,101723.91
2023-02-07T17:41:16.782Z,101720.47
2023-02-07T17:44:21.819Z,101725.41
2023-02-07T17:47:27.424Z,101739.31
2023-02-07T17:50:37.955Z,101735.39
2023-02-07T17:53:51.374Z,101725.33
2023-02-07T17:56:57.865Z,101728.59
2023-02-07T18:00:03.791Z,101747.38
2023-02-07T18:03:10.928Z,101737.30
2023-02-07T18:06:16.328Z,101732.85
2023-02-07T18:09:24.723Z,101755.98
2023-02-07T18:12:30.932Z,101741.92
2023-02-07T18:15:38.051Z,101746.28
2023-02-07T18:18:45.762Z,101748.20
2023-02-07T18:21:51.278Z,101768.29
2023-02-07T18:24:57.378Z,101761.94
2023-02-07T18:28:03.058Z,101779.63
2023-02-07T18:31:08.443Z,101769.24
2023-02-07T18:34:15.273Z,101786.45
2023-02-07T18:37:21.177Z,101789.89
2023-02-07T18:40:27.430Z,101787.44
2023-02-07T18:43:33.722Z,101799.25
2023-02-07T18:46:40.191Z,101802.06
2023-02-07T18:49:45.919Z,101808.28
2023-02-07T18:52:51.300Z,101801.11
2023-02-07T18:56:00.481Z,101814.07
2023-02-07T18:59:06.118Z,101817.77
2023-02-07T19:02:12.421Z,101817.91
2023-02-07T19:05:18.665Z,101826.31
2023-02-07T19:08:24.972Z,101832.18
2023-02-07T19:11:29.900Z,101839.31
2023-02-07T19:14:38.539Z,101838.66
2023-02-07T19:17:44.938Z,101838.34
2023-02-07T19:20:45.255Z,101840.47
2023-02-07T19:23:51.123Z,101847.09
2023-02-07T19:26:56.090Z,101854.39
2023-02-07T19:30:02.292Z,101847.22
2023-02-07T19:33:09.137Z,101841.78
2023-02-07T19:36:23.744Z,101854.89
2023-02-07T19:39:29.589Z,101866.20
2023-02-07T19:42:35.901Z,101860.06
2023-02-07T19:45:35.036Z,101864.68
2023-02-07T19:48:41.175Z,101862.28
2023-02-07T19:51:40.973Z,101858.16
2023-02-07T19:54:46.915Z,101866.30
2023-02-07T19:57:53.388Z,101876.25
2023-02-07T20:00:59.182Z,101875.08
2023-02-07T20:04:08.000Z,101878.80
2023-02-07T20:07:14.144Z,101870.72
2023-02-07T20:10:19.971Z,101873.58
2023-02-07T20:13:29.405Z,101879.53
2023-02-07T20:16:40.176Z,101898.73
2023-02-07T20:19:46.072Z,101888.49
2023-02-07T20:22:51.837Z,101909.69
2023-02-07T20:25:58.480Z,101904.67
2023-02-07T20:29:05.148Z,101910.52
2023-02-07T20:32:11.178Z,101933.39
2023-02-07T20:35:17.199Z,101907.30
2023-02-07T20:38:22.370Z,101921.50
2023-02-07T20:41:37.141Z,101925.39
2023-02-07T20:44:43.432Z,101928.59
2023-02-07T20:47:49.313Z,101942.00
2023-02-07T20:50:55.041Z,101940.39
2023-02-07T20:54:00.683Z,101934.25
2023-02-07T20:57:07.668Z,101934.87
2023-02-07T21:00:16.259Z,101943.94
2023-02-07T21:03:21.836Z,101953.09
2023-02-07T21:06:30.053Z,101963.55
2023-02-07T21:09:36.464Z,101960.78
2023-02-07T21:12:42.946Z,101981.56
2023-02-07T21:16:02.323Z,101975.33
2023-02-07T21:18:54.408Z,101971.96
2023-02-07T21:22:02.569Z,101969.70
2023-02-07T21:25:09.199Z,101986.13
2023-02-07T21:28:16.120Z,101991.03
2023-02-07T21:31:30.103Z,101987.48
2023-02-07T21:34:35.055Z,101984.52
2023-02-07T21:37:41.414Z,101990.78
2023-02-07T21:40:48.330Z,102007.05
2023-02-07T21:43:54.880Z,101993.81
2023-02-07T21:47:00.276Z,102008.58
2023-02-07T21:50:04.986Z,101999.03
2023-02-07T21:53:09.806Z,102016.84
2023-02-07T21:56:18.490Z,102028.95
2023-02-07T21:59:28.032Z,102020.95
2023-02-07T22:02:33.666Z,102019.61
2023-02-07T22:05:39.144Z,102028.02
2023-02-07T22:08:44.040Z,102022.02
2023-02-07T22:11:50.258Z,102036.70
2023-02-07T22:14:56.005Z,102035.98
2023-02-07T22:18:02.433Z,102038.09
2023-02-07T22:21:08.977Z,102053.55
2023-02-07T22:24:15.328Z,102045.12
2023-02-07T22:27:21.750Z,102051.44
2023-02-07T22:30:29.173Z,102055.91
2023-02-07T22:33:34.733Z,102047.02
2023-02-07T22:36:44.666Z,102040.91
2023-02-07T22:39:50.535Z,102041.27
2023-02-07T22:42:56.871Z,102055.17
2023-02-07T22:46:03.531Z,102039.14
2023-02-07T22:49:09.309Z,102070.06
2023-02-07T22:52:14.555Z,102078.30
2023-02-07T22:55:20.336Z,102050.09
2023-02-07T22:58:31.223Z,102076.50
2023-02-07T23:01:45.786Z,102061.38
2023-02-07T23:04:53.412Z,102070.59
2023-02-07T23:08:00.880Z,102060.47
2023-02-07T23:11:06.781Z,102068.89
2023-02-07T23:14:11.930Z,102064.88
2023-02-07T23:17:12.033Z,102085.99
2023-02-07T23:20:11.870Z,102088.68
2023-02-07T23:23:17.828Z,102084.97
2023-02-07T23:26:25.896Z,102090.34
2023-02-07T23:29:32.728Z,102082.60
2023-02-07T23:32:38.384Z,102092.83
2023-02-07T23:35:45.192Z,102096.89
2023-02-07T23:38:50.953Z,102100.64
2023-02-07T23:41:57.166Z,102104.39
2023-02-07T23:45:04.025Z,102103.30
2023-02-07T23:48:10.129Z,102116.33
2023-02-07T23:51:17.206Z,102112.34
2023-02-07T23:54:22.995Z,102110.68
2023-02-07T23:57:28.594Z,102122.77
